sensor_id;sensor_type;location;lat;lon;timestamp;temperature;humidity
55648;DHT22;45266;48.756;9.246;2022-12-07T00:00:29;3.80;99.90
55648;DHT22;45266;48.756;9.246;2022-12-07T00:01:33;3.80;99.90
55648;DHT22;45266;48.756;9.246;2022-12-07T00:02:35;3.80;99.90
55648;DHT22;45266;48.756;9.246;2022-12-07T00:03:38;3.90;99.90
55648;DHT22;45266;48.756;9.246;2022-12-07T00:04:40;3.80;99.90
55648;DHT22;45266;48.756;9.246;2022-12-07T00:05:42;3.90;99.90
55648;DHT22;45266;48.756;9.246;2022-12-07T00:06:46;3.90;99.90
55648;DHT22;45266;48.756;9.246;2022-12-07T00:07:49;3.80;99.90
55648;DHT22;45266;48.756;9.246;2022-12-07T00:08:51;3.90;99.90
55648;DHT22;45266;48.756;9.246;2022-12-07T00:09:52;3.80;99.90
55648;DHT22;45266;48.756;9.246;2022-12-07T00:10:54;3.80;99.90
55648;DHT22;45266;48.756;9.246;2022-12-07T00:11:56;3.80;99.90
55648;DHT22;45266;48.756;9.246;2022-12-07T00:12:58;3.80;99.90
55648;DHT22;45266;48.756;9.246;2022-12-07T00:14:04;3.80;99.90
55648;DHT22;45266;48.756;9.246;2022-12-07T00:15:07;3.80;99.90
55648;DHT22;45266;48.756;9.246;2022-12-07T00:16:14;3.80;99.90
55648;DHT22;45266;48.756;9.246;2022-12-07T00:17:16;3.80;99.90
55648;DHT22;45266;48.756;9.246;2022-12-07T00:18:18;3.80;99.90
55648;DHT22;45266;48.756;9.246;2022-12-07T00:19:20;3.80;99.90
55648;DHT22;45266;48.756;9.246;2022-12-07T00:20:22;3.90;99.90
55648;DHT22;45266;48.756;9.246;2022-12-07T00:21:28;3.80;99.90
55648;DHT22;45266;48.756;9.246;2022-12-07T00:22:30;3.90;99.90
55648;DHT22;45266;48.756;9.246;2022-12-07T00:23:32;3.80;99.90
55648;DHT22;45266;48.756;9.246;2022-12-07T00:24:34;3.80;99.90
55648;DHT22;45266;48.756;9.246;2022-12-07T00:25:36;4.00;99.90
55648;DHT22;45266;48.756;9.246;2022-12-07T00:26:40;3.80;99.90
55648;DHT22;45266;48.756;9.246;2022-12-07T00:27:41;3.90;99.90
55648;DHT22;45266;48.756;9.246;2022-12-07T00:28:52;3.80;99.90
55648;DHT22;45266;48.756;9.246;2022-12-07T00:29:53;3.90;99.90
55648;DHT22;45266;48.756;9.246;2022-12-07T00:32:04;3.80;99.90
55648;DHT22;45266;48.756;9.246;2022-12-07T00:33:06;3.80;99.90
55648;DHT22;45266;48.756;9.246;2022-12-07T00:34:12;3.80;99.90
55648;DHT22;45266;48.756;9.246;2022-12-07T00:35:14;3.80;99.90
55648;DHT22;45266;48.756;9.246;2022-12-07T00:36:19;3.80;99.90
55648;DHT22;45266;48.756;9.246;2022-12-07T00:37:27;3.80;99.90
55648;DHT22;45266;48.756;9.246;2022-12-07T00:38:30;3.80;99.90
55648;DHT22;45266;48.756;9.246;2022-12-07T00:39:32;3.70;99.90
55648;DHT22;45266;48.756;9.246;2022-12-07T00:40:34;3.80;99.90
55648;DHT22;45266;48.756;9.246;2022-12-07T00:41:36;3.80;99.90
55648;DHT22;45266;48.756;9.246;2022-12-07T00:42:38;3.80;99.90
55648;DHT22;45266;48.756;9.246;2022-12-07T00:43:40;3.80;99.90
55648;DHT22;45266;48.756;9.246;2022-12-07T00:44:42;3.80;99.90
55648;DHT22;45266;48.756;9.246;2022-12-07T00:45:44;3.80;99.90
55648;DHT22;45266;48.756;9.246;2022-12-07T00:46:46;3.80;99.90
55648;DHT22;45266;48.756;9.246;2022-12-07T00:47:48;3.80;99.90
55648;DHT22;45266;48.756;9.246;2022-12-07T00:48:50;3.90;99.90
55648;DHT22;45266;48.756;9.246;2022-12-07T00:49:52;3.90;99.90
55648;DHT22;45266;48.756;9.246;2022-12-07T00:50:54;3.80;99.90
55648;DHT22;45266;48.756;9.246;2022-12-07T00:51:56;3.80;99.90
55648;DHT22;45266;48.756;9.246;2022-12-07T00:52:58;3.80;99.90
55648;DHT22;45266;48.756;9.246;2022-12-07T00:53:59;3.80;99.90
55648;DHT22;45266;48.756;9.246;2022-12-07T00:55:01;3.80;99.90
55648;DHT22;45266;48.756;9.246;2022-12-07T00:56:11;3.80;99.90
55648;DHT22;45266;48.756;9.246;2022-12-07T00:57:13;3.80;99.90
55648;DHT22;45266;48.756;9.246;2022-12-07T00:58:15;3.80;99.90
55648;DHT22;45266;48.756;9.246;2022-12-07T00:59:17;3.80;99.90
55648;DHT22;45266;48.756;9.246;2022-12-07T01:00:18;3.80;99.90
55648;DHT22;45266;48.756;9.246;2022-12-07T01:01:20;3.90;99.90
55648;DHT22;45266;48.756;9.246;2022-12-07T01:02:22;3.70;99.90
55648;DHT22;45266;48.756;9.246;2022-12-07T01:03:24;3.70;99.90
55648;DHT22;45266;48.756;9.246;2022-12-07T01:04:26;3.80;99.90
55648;DHT22;45266;48.756;9.246;2022-12-07T01:05:28;3.70;99.90
55648;DHT22;45266;48.756;9.246;2022-12-07T01:06:30;3.80;99.90
55648;DHT22;45266;48.756;9.246;2022-12-07T01:07:32;3.70;99.90
55648;DHT22;45266;48.756;9.246;2022-12-07T01:08:33;3.70;99.90
55648;DHT22;45266;48.756;9.246;2022-12-07T01:09:35;3.70;99.90
55648;DHT22;45266;48.756;9.246;2022-12-07T01:10:37;3.70;99.90
55648;DHT22;45266;48.756;9.246;2022-12-07T01:11:39;3.70;99.90
55648;DHT22;45266;48.756;9.246;2022-12-07T01:12:41;3.70;99.90
55648;DHT22;45266;48.756;9.246;2022-12-07T01:13:43;3.70;99.90
55648;DHT22;45266;48.756;9.246;2022-12-07T01:14:45;3.70;99.90
55648;DHT22;45266;48.756;9.246;2022-12-07T01:15:47;3.70;99.90
55648;DHT22;45266;48.756;9.246;2022-12-07T01:16:48;3.70;99.90
55648;DHT22;45266;48.756;9.246;2022-12-07T01:17:50;3.70;99.90
55648;DHT22;45266;48.756;9.246;2022-12-07T01:18:54;3.70;99.90
55648;DHT22;45266;48.756;9.246;2022-12-07T01:19:56;3.60;99.90
55648;DHT22;45266;48.756;9.246;2022-12-07T01:21:05;3.70;99.90
55648;DHT22;45266;48.756;9.246;2022-12-07T01:22:07;3.70;99.90
55648;DHT22;45266;48.756;9.246;2022-12-07T01:23:09;3.70;99.90
55648;DHT22;45266;48.756;9.246;2022-12-07T01:24:11;3.80;99.90
55648;DHT22;45266;48.756;9.246;2022-12-07T01:25:13;3.70;99.90
55648;DHT22;45266;48.756;9.246;2022-12-07T01:26:17;3.70;99.90
55648;DHT22;45266;48.756;9.246;2022-12-07T01:27:19;3.60;99.90
55648;DHT22;45266;48.756;9.246;2022-12-07T01:28:21;3.70;99.90
55648;DHT22;45266;48.756;9.246;2022-12-07T01:29:23;3.70;99.90
55648;DHT22;45266;48.756;9.246;2022-12-07T01:30:25;3.60;99.90
55648;DHT22;45266;48.756;9.246;2022-12-07T01:31:28;3.70;99.90
55648;DHT22;45266;48.756;9.246;2022-12-07T01:32:30;3.70;99.90
55648;DHT22;45266;48.756;9.246;2022-12-07T01:33:34;3.80;99.90
55648;DHT22;45266;48.756;9.246;2022-12-07T01:34:36;3.70;99.90
55648;DHT22;45266;48.756;9.246;2022-12-07T01:35:38;3.70;99.90
55648;DHT22;45266;48.756;9.246;2022-12-07T01:36:40;3.70;99.90
55648;DHT22;45266;48.756;9.246;2022-12-07T01:37:41;3.60;99.90
55648;DHT22;45266;48.756;9.246;2022-12-07T01:38:44;3.70;99.90
55648;DHT22;45266;48.756;9.246;2022-12-07T01:39:49;3.60;99.90
55648;DHT22;45266;48.756;9.246;2022-12-07T01:40:55;3.60;99.90
55648;DHT22;45266;48.756;9.246;2022-12-07T01:41:57;3.60;99.90
55648;DHT22;45266;48.756;9.246;2022-12-07T01:42:59;3.60;99.90
55648;DHT22;45266;48.756;9.246;2022-12-07T01:44:27;3.60;99.90
55648;DHT22;45266;48.756;9.246;2022-12-07T01:45:41;3.60;99.90
55648;DHT22;45266;48.756;9.246;2022-12-07T01:46:45;3.60;99.90
55648;DHT22;45266;48.756;9.246;2022-12-07T01:47:53;3.60;99.90
55648;DHT22;45266;48.756;9.246;2022-12-07T01:48:57;3.50;99.90
55648;DHT22;45266;48.756;9.246;2022-12-07T01:49:58;3.60;99.90
55648;DHT22;45266;48.756;9.246;2022-12-07T01:51:05;3.60;99.90
55648;DHT22;45266;48.756;9.246;2022-12-07T01:52:16;3.60;99.90
55648;DHT22;45266;48.756;9.246;2022-12-07T01:53:19;3.60;99.90
55648;DHT22;45266;48.756;9.246;2022-12-07T01:54:22;3.60;99.90
55648;DHT22;45266;48.756;9.246;2022-12-07T01:55:25;3.60;99.90
55648;DHT22;45266;48.756;9.246;2022-12-07T01:56:28;3.60;99.90
55648;DHT22;45266;48.756;9.246;2022-12-07T01:57:32;3.60;99.90
55648;DHT22;45266;48.756;9.246;2022-12-07T01:58:36;3.60;99.90
55648;DHT22;45266;48.756;9.246;2022-12-07T01:59:39;3.60;99.90
55648;DHT22;45266;48.756;9.246;2022-12-07T02:00:41;3.60;99.90
55648;DHT22;45266;48.756;9.246;2022-12-07T02:01:43;3.60;99.90
55648;DHT22;45266;48.756;9.246;2022-12-07T02:02:53;3.60;99.90
55648;DHT22;45266;48.756;9.246;2022-12-07T02:03:57;3.60;99.90
55648;DHT22;45266;48.756;9.246;2022-12-07T02:05:02;3.60;99.90
55648;DHT22;45266;48.756;9.246;2022-12-07T02:06:05;3.60;99.90
55648;DHT22;45266;48.756;9.246;2022-12-07T02:07:08;3.60;99.90
55648;DHT22;45266;48.756;9.246;2022-12-07T02:08:10;3.60;99.90
55648;DHT22;45266;48.756;9.246;2022-12-07T02:09:13;3.60;99.90
55648;DHT22;45266;48.756;9.246;2022-12-07T02:10:25;3.60;99.90
55648;DHT22;45266;48.756;9.246;2022-12-07T02:11:27;3.70;99.90
55648;DHT22;45266;48.756;9.246;2022-12-07T02:12:28;3.70;99.90
55648;DHT22;45266;48.756;9.246;2022-12-07T02:13:32;3.70;99.90
55648;DHT22;45266;48.756;9.246;2022-12-07T02:14:34;3.70;99.90
55648;DHT22;45266;48.756;9.246;2022-12-07T02:15:56;3.60;99.90
55648;DHT22;45266;48.756;9.246;2022-12-07T02:17:11;3.60;99.90
55648;DHT22;45266;48.756;9.246;2022-12-07T02:20:14;3.60;99.90
55648;DHT22;45266;48.756;9.246;2022-12-07T02:24:10;3.50;99.90
55648;DHT22;45266;48.756;9.246;2022-12-07T02:25:53;3.50;99.90
55648;DHT22;45266;48.756;9.246;2022-12-07T02:27:24;3.50;99.90
55648;DHT22;45266;48.756;9.246;2022-12-07T02:28:44;3.50;99.90
55648;DHT22;45266;48.756;9.246;2022-12-07T02:30:48;3.40;99.90
55648;DHT22;45266;48.756;9.246;2022-12-07T02:33:24;3.40;99.90
55648;DHT22;45266;48.756;9.246;2022-12-07T02:35:48;3.40;99.90
55648;DHT22;45266;48.756;9.246;2022-12-07T02:37:00;3.30;99.90
55648;DHT22;45266;48.756;9.246;2022-12-07T02:38:39;3.40;99.90
55648;DHT22;45266;48.756;9.246;2022-12-07T02:39:51;3.40;99.90
55648;DHT22;45266;48.756;9.246;2022-12-07T02:41:02;3.30;99.90
55648;DHT22;45266;48.756;9.246;2022-12-07T02:42:23;3.30;99.90
55648;DHT22;45266;48.756;9.246;2022-12-07T02:43:29;3.30;99.90
55648;DHT22;45266;48.756;9.246;2022-12-07T02:44:32;3.20;99.90
55648;DHT22;45266;48.756;9.246;2022-12-07T02:45:38;3.20;99.90
55648;DHT22;45266;48.756;9.246;2022-12-07T02:46:44;3.20;99.90
55648;DHT22;45266;48.756;9.246;2022-12-07T02:47:51;3.20;99.90
55648;DHT22;45266;48.756;9.246;2022-12-07T02:48:55;3.20;99.90
55648;DHT22;45266;48.756;9.246;2022-12-07T02:49:57;3.20;99.90
55648;DHT22;45266;48.756;9.246;2022-12-07T02:50:59;3.10;99.90
55648;DHT22;45266;48.756;9.246;2022-12-07T02:52:01;3.20;99.90
55648;DHT22;45266;48.756;9.246;2022-12-07T02:53:03;3.10;99.90
55648;DHT22;45266;48.756;9.246;2022-12-07T02:54:13;3.20;99.90
55648;DHT22;45266;48.756;9.246;2022-12-07T02:55:18;3.10;99.90
55648;DHT22;45266;48.756;9.246;2022-12-07T03:01:36;3.20;99.90
55648;DHT22;45266;48.756;9.246;2022-12-07T03:06:57;3.20;99.90
55648;DHT22;45266;48.756;9.246;2022-12-07T03:09:36;3.20;99.90
55648;DHT22;45266;48.756;9.246;2022-12-07T03:12:04;3.20;99.90
55648;DHT22;45266;48.756;9.246;2022-12-07T03:14:21;3.20;99.90
55648;DHT22;45266;48.756;9.246;2022-12-07T03:15:35;3.20;99.90
55648;DHT22;45266;48.756;9.246;2022-12-07T03:16:55;3.20;99.90
55648;DHT22;45266;48.756;9.246;2022-12-07T03:18:00;3.20;99.90
55648;DHT22;45266;48.756;9.246;2022-12-07T03:19:13;3.20;99.90
55648;DHT22;45266;48.756;9.246;2022-12-07T03:20:20;3.20;99.90
55648;DHT22;45266;48.756;9.246;2022-12-07T03:21:49;3.10;99.90
55648;DHT22;45266;48.756;9.246;2022-12-07T03:22:47;3.10;99.90
55648;DHT22;45266;48.756;9.246;2022-12-07T03:23:54;3.20;99.90
55648;DHT22;45266;48.756;9.246;2022-12-07T03:25:00;3.20;99.90
55648;DHT22;45266;48.756;9.246;2022-12-07T03:26:03;3.20;99.90
55648;DHT22;45266;48.756;9.246;2022-12-07T03:27:13;3.10;99.90
55648;DHT22;45266;48.756;9.246;2022-12-07T03:28:18;3.10;99.90
55648;DHT22;45266;48.756;9.246;2022-12-07T03:29:33;3.10;99.90
55648;DHT22;45266;48.756;9.246;2022-12-07T03:31:03;3.10;99.90
55648;DHT22;45266;48.756;9.246;2022-12-07T03:32:13;3.10;99.90
55648;DHT22;45266;48.756;9.246;2022-12-07T03:33:24;3.10;99.90
55648;DHT22;45266;48.756;9.246;2022-12-07T03:34:34;3.10;99.90
55648;DHT22;45266;48.756;9.246;2022-12-07T03:35:42;3.10;99.90
55648;DHT22;45266;48.756;9.246;2022-12-07T03:36:59;3.10;99.90
55648;DHT22;45266;48.756;9.246;2022-12-07T03:39:24;3.10;99.90
55648;DHT22;45266;48.756;9.246;2022-12-07T03:40:32;3.10;99.90
55648;DHT22;45266;48.756;9.246;2022-12-07T03:41:37;3.20;99.90
55648;DHT22;45266;48.756;9.246;2022-12-07T03:42:46;3.20;99.90
55648;DHT22;45266;48.756;9.246;2022-12-07T03:43:48;3.20;99.90
55648;DHT22;45266;48.756;9.246;2022-12-07T03:44:50;3.20;99.90
55648;DHT22;45266;48.756;9.246;2022-12-07T03:46:17;3.10;99.90
55648;DHT22;45266;48.756;9.246;2022-12-07T03:47:29;3.10;99.90
55648;DHT22;45266;48.756;9.246;2022-12-07T03:48:34;3.10;99.90
55648;DHT22;45266;48.756;9.246;2022-12-07T03:51:00;3.10;99.90
55648;DHT22;45266;48.756;9.246;2022-12-07T03:52:24;3.10;99.90
55648;DHT22;45266;48.756;9.246;2022-12-07T03:53:34;3.10;99.90
55648;DHT22;45266;48.756;9.246;2022-12-07T03:54:41;3.10;99.90
55648;DHT22;45266;48.756;9.246;2022-12-07T03:55:46;3.10;99.90
55648;DHT22;45266;48.756;9.246;2022-12-07T03:56:50;3.10;99.90
55648;DHT22;45266;48.756;9.246;2022-12-07T03:57:56;3.10;99.90
55648;DHT22;45266;48.756;9.246;2022-12-07T03:58:59;3.00;99.90
55648;DHT22;45266;48.756;9.246;2022-12-07T04:00:03;3.10;99.90
55648;DHT22;45266;48.756;9.246;2022-12-07T04:01:06;3.10;99.90
55648;DHT22;45266;48.756;9.246;2022-12-07T04:02:11;3.10;99.90
55648;DHT22;45266;48.756;9.246;2022-12-07T04:03:14;3.00;99.90
55648;DHT22;45266;48.756;9.246;2022-12-07T04:04:16;3.00;99.90
55648;DHT22;45266;48.756;9.246;2022-12-07T04:05:18;3.10;99.90
55648;DHT22;45266;48.756;9.246;2022-12-07T04:06:19;3.00;99.90
55648;DHT22;45266;48.756;9.246;2022-12-07T04:07:21;3.00;99.90
55648;DHT22;45266;48.756;9.246;2022-12-07T04:08:23;3.00;99.90
55648;DHT22;45266;48.756;9.246;2022-12-07T04:09:25;3.00;99.90
55648;DHT22;45266;48.756;9.246;2022-12-07T04:10:27;3.00;99.90
55648;DHT22;45266;48.756;9.246;2022-12-07T04:11:29;3.00;99.90
55648;DHT22;45266;48.756;9.246;2022-12-07T04:12:31;3.00;99.90
55648;DHT22;45266;48.756;9.246;2022-12-07T04:13:32;3.00;99.90
55648;DHT22;45266;48.756;9.246;2022-12-07T04:14:54;3.00;99.90
55648;DHT22;45266;48.756;9.246;2022-12-07T04:15:55;3.00;99.90
55648;DHT22;45266;48.756;9.246;2022-12-07T04:16:58;3.00;99.90
55648;DHT22;45266;48.756;9.246;2022-12-07T04:18:00;2.90;99.90
55648;DHT22;45266;48.756;9.246;2022-12-07T04:19:02;3.00;99.90
55648;DHT22;45266;48.756;9.246;2022-12-07T04:20:05;3.00;99.90
55648;DHT22;45266;48.756;9.246;2022-12-07T04:21:07;2.90;99.90
55648;DHT22;45266;48.756;9.246;2022-12-07T04:22:09;2.90;99.90
55648;DHT22;45266;48.756;9.246;2022-12-07T04:23:11;2.90;99.90
55648;DHT22;45266;48.756;9.246;2022-12-07T04:24:14;2.90;99.90
55648;DHT22;45266;48.756;9.246;2022-12-07T04:25:16;2.90;99.90
55648;DHT22;45266;48.756;9.246;2022-12-07T04:26:18;2.80;99.90
55648;DHT22;45266;48.756;9.246;2022-12-07T04:27:19;2.80;99.90
55648;DHT22;45266;48.756;9.246;2022-12-07T04:28:21;2.80;99.90
55648;DHT22;45266;48.756;9.246;2022-12-07T04:29:23;2.80;99.90
55648;DHT22;45266;48.756;9.246;2022-12-07T04:30:25;2.80;99.90
55648;DHT22;45266;48.756;9.246;2022-12-07T04:31:27;2.80;99.90
55648;DHT22;45266;48.756;9.246;2022-12-07T04:32:29;2.80;99.90
55648;DHT22;45266;48.756;9.246;2022-12-07T04:33:30;2.80;99.90
55648;DHT22;45266;48.756;9.246;2022-12-07T04:34:32;2.80;99.90
55648;DHT22;45266;48.756;9.246;2022-12-07T04:35:34;2.70;99.90
55648;DHT22;45266;48.756;9.246;2022-12-07T04:36:36;2.70;99.90
55648;DHT22;45266;48.756;9.246;2022-12-07T04:37:38;2.70;99.90
55648;DHT22;45266;48.756;9.246;2022-12-07T04:38:41;2.70;99.90
55648;DHT22;45266;48.756;9.246;2022-12-07T04:39:43;2.70;99.90
55648;DHT22;45266;48.756;9.246;2022-12-07T04:40:46;2.70;99.90
55648;DHT22;45266;48.756;9.246;2022-12-07T04:41:48;2.60;99.90
55648;DHT22;45266;48.756;9.246;2022-12-07T04:42:50;2.60;99.90
55648;DHT22;45266;48.756;9.246;2022-12-07T04:43:52;2.60;99.90
55648;DHT22;45266;48.756;9.246;2022-12-07T04:44:53;2.60;99.90
55648;DHT22;45266;48.756;9.246;2022-12-07T04:45:55;2.60;99.90
55648;DHT22;45266;48.756;9.246;2022-12-07T04:46:57;2.60;99.90
55648;DHT22;45266;48.756;9.246;2022-12-07T04:47:59;2.50;99.90
55648;DHT22;45266;48.756;9.246;2022-12-07T04:49:00;2.40;99.90
55648;DHT22;45266;48.756;9.246;2022-12-07T04:50:03;2.40;99.90
55648;DHT22;45266;48.756;9.246;2022-12-07T04:51:05;2.30;99.90
55648;DHT22;45266;48.756;9.246;2022-12-07T04:52:07;2.30;99.90
55648;DHT22;45266;48.756;9.246;2022-12-07T04:53:20;2.30;99.90
55648;DHT22;45266;48.756;9.246;2022-12-07T04:54:27;2.30;99.90
55648;DHT22;45266;48.756;9.246;2022-12-07T04:55:29;2.20;99.90
55648;DHT22;45266;48.756;9.246;2022-12-07T04:56:31;2.20;99.90
55648;DHT22;45266;48.756;9.246;2022-12-07T04:57:32;2.20;99.90
55648;DHT22;45266;48.756;9.246;2022-12-07T04:58:34;2.20;99.90
55648;DHT22;45266;48.756;9.246;2022-12-07T04:59:36;2.20;99.90
55648;DHT22;45266;48.756;9.246;2022-12-07T05:00:45;2.20;99.90
55648;DHT22;45266;48.756;9.246;2022-12-07T05:01:47;2.20;99.90
55648;DHT22;45266;48.756;9.246;2022-12-07T05:02:49;2.20;99.90
55648;DHT22;45266;48.756;9.246;2022-12-07T05:03:51;2.10;99.90
55648;DHT22;45266;48.756;9.246;2022-12-07T05:04:52;2.10;99.90
55648;DHT22;45266;48.756;9.246;2022-12-07T05:05:54;2.10;99.90
55648;DHT22;45266;48.756;9.246;2022-12-07T05:06:56;2.10;99.90
55648;DHT22;45266;48.756;9.246;2022-12-07T05:07:57;2.10;99.90
55648;DHT22;45266;48.756;9.246;2022-12-07T05:08:59;2.10;99.90
55648;DHT22;45266;48.756;9.246;2022-12-07T05:10:01;2.10;99.90
55648;DHT22;45266;48.756;9.246;2022-12-07T05:11:04;2.00;99.90
55648;DHT22;45266;48.756;9.246;2022-12-07T05:12:06;2.00;99.90
55648;DHT22;45266;48.756;9.246;2022-12-07T05:13:08;2.10;99.90
55648;DHT22;45266;48.756;9.246;2022-12-07T05:14:18;2.00;99.90
55648;DHT22;45266;48.756;9.246;2022-12-07T05:15:20;2.10;99.90
55648;DHT22;45266;48.756;9.246;2022-12-07T05:16:22;2.10;99.90
55648;DHT22;45266;48.756;9.246;2022-12-07T05:17:24;2.10;99.90
55648;DHT22;45266;48.756;9.246;2022-12-07T05:18:25;2.10;99.90
55648;DHT22;45266;48.756;9.246;2022-12-07T05:19:27;2.10;99.90
55648;DHT22;45266;48.756;9.246;2022-12-07T05:20:29;2.00;99.90
55648;DHT22;45266;48.756;9.246;2022-12-07T05:21:31;2.10;99.90
55648;DHT22;45266;48.756;9.246;2022-12-07T05:22:33;2.10;99.90
55648;DHT22;45266;48.756;9.246;2022-12-07T05:23:34;2.10;99.90
55648;DHT22;45266;48.756;9.246;2022-12-07T05:24:36;2.10;99.90
55648;DHT22;45266;48.756;9.246;2022-12-07T05:25:38;2.10;99.90
55648;DHT22;45266;48.756;9.246;2022-12-07T05:26:40;2.10;99.90
55648;DHT22;45266;48.756;9.246;2022-12-07T05:27:42;2.10;99.90
55648;DHT22;45266;48.756;9.246;2022-12-07T05:28:43;2.00;99.90
55648;DHT22;45266;48.756;9.246;2022-12-07T05:29:45;2.10;99.90
55648;DHT22;45266;48.756;9.246;2022-12-07T05:30:47;2.00;99.90
55648;DHT22;45266;48.756;9.246;2022-12-07T05:31:49;2.00;99.90
55648;DHT22;45266;48.756;9.246;2022-12-07T05:32:51;2.00;99.90
55648;DHT22;45266;48.756;9.246;2022-12-07T05:33:53;2.00;99.90
55648;DHT22;45266;48.756;9.246;2022-12-07T05:34:55;2.00;99.90
55648;DHT22;45266;48.756;9.246;2022-12-07T05:35:56;1.90;99.90
55648;DHT22;45266;48.756;9.246;2022-12-07T05:36:58;1.90;99.90
55648;DHT22;45266;48.756;9.246;2022-12-07T05:38:00;1.90;99.90
55648;DHT22;45266;48.756;9.246;2022-12-07T05:39:02;1.90;99.90
55648;DHT22;45266;48.756;9.246;2022-12-07T05:40:05;1.80;99.90
55648;DHT22;45266;48.756;9.246;2022-12-07T05:41:08;1.80;99.90
55648;DHT22;45266;48.756;9.246;2022-12-07T05:42:30;1.80;99.90
55648;DHT22;45266;48.756;9.246;2022-12-07T05:43:32;1.80;99.90
55648;DHT22;45266;48.756;9.246;2022-12-07T05:44:34;1.80;99.90
55648;DHT22;45266;48.756;9.246;2022-12-07T05:45:36;1.70;99.90
55648;DHT22;45266;48.756;9.246;2022-12-07T05:46:37;1.70;99.90
55648;DHT22;45266;48.756;9.246;2022-12-07T05:47:39;1.70;99.90
55648;DHT22;45266;48.756;9.246;2022-12-07T05:48:41;1.80;99.90
55648;DHT22;45266;48.756;9.246;2022-12-07T05:49:43;1.80;99.90
55648;DHT22;45266;48.756;9.246;2022-12-07T05:50:47;1.70;99.90
55648;DHT22;45266;48.756;9.246;2022-12-07T05:51:49;1.70;99.90
55648;DHT22;45266;48.756;9.246;2022-12-07T05:52:51;1.70;99.90
55648;DHT22;45266;48.756;9.246;2022-12-07T05:53:53;1.70;99.90
55648;DHT22;45266;48.756;9.246;2022-12-07T05:54:54;1.60;99.90
55648;DHT22;45266;48.756;9.246;2022-12-07T05:55:56;1.60;99.90
55648;DHT22;45266;48.756;9.246;2022-12-07T05:56:58;1.60;99.90
55648;DHT22;45266;48.756;9.246;2022-12-07T05:58:00;1.60;99.90
55648;DHT22;45266;48.756;9.246;2022-12-07T05:59:20;1.60;99.90
55648;DHT22;45266;48.756;9.246;2022-12-07T06:00:25;1.60;99.90
55648;DHT22;45266;48.756;9.246;2022-12-07T06:01:26;1.50;99.90
55648;DHT22;45266;48.756;9.246;2022-12-07T06:02:28;1.50;99.90
55648;DHT22;45266;48.756;9.246;2022-12-07T06:03:30;1.50;99.90
55648;DHT22;45266;48.756;9.246;2022-12-07T06:04:38;1.50;99.90
55648;DHT22;45266;48.756;9.246;2022-12-07T06:05:40;1.50;99.90
55648;DHT22;45266;48.756;9.246;2022-12-07T06:06:41;1.50;99.90
55648;DHT22;45266;48.756;9.246;2022-12-07T06:07:43;1.60;99.90
55648;DHT22;45266;48.756;9.246;2022-12-07T06:08:45;1.50;99.90
55648;DHT22;45266;48.756;9.246;2022-12-07T06:09:47;1.50;99.90
55648;DHT22;45266;48.756;9.246;2022-12-07T06:10:48;1.50;99.90
55648;DHT22;45266;48.756;9.246;2022-12-07T06:12:11;1.50;99.90
55648;DHT22;45266;48.756;9.246;2022-12-07T06:13:31;1.50;99.90
55648;DHT22;45266;48.756;9.246;2022-12-07T06:14:34;1.50;99.90
55648;DHT22;45266;48.756;9.246;2022-12-07T06:15:36;1.50;99.90
55648;DHT22;45266;48.756;9.246;2022-12-07T06:16:38;1.50;99.90
55648;DHT22;45266;48.756;9.246;2022-12-07T06:17:40;1.50;99.90
55648;DHT22;45266;48.756;9.246;2022-12-07T06:18:42;1.50;99.90
55648;DHT22;45266;48.756;9.246;2022-12-07T06:19:44;1.50;99.90
55648;DHT22;45266;48.756;9.246;2022-12-07T06:20:46;1.50;99.90
55648;DHT22;45266;48.756;9.246;2022-12-07T06:21:47;1.50;99.90
55648;DHT22;45266;48.756;9.246;2022-12-07T06:22:49;1.50;99.90
55648;DHT22;45266;48.756;9.246;2022-12-07T06:23:51;1.50;99.90
55648;DHT22;45266;48.756;9.246;2022-12-07T06:24:53;1.50;99.90
55648;DHT22;45266;48.756;9.246;2022-12-07T06:25:55;1.50;99.90
55648;DHT22;45266;48.756;9.246;2022-12-07T06:26:57;1.50;99.90
55648;DHT22;45266;48.756;9.246;2022-12-07T06:27:59;1.50;99.90
55648;DHT22;45266;48.756;9.246;2022-12-07T06:29:00;1.50;99.90
55648;DHT22;45266;48.756;9.246;2022-12-07T06:30:03;1.50;99.90
55648;DHT22;45266;48.756;9.246;2022-12-07T06:31:08;1.50;99.90
55648;DHT22;45266;48.756;9.246;2022-12-07T06:32:14;1.60;99.90
55648;DHT22;45266;48.756;9.246;2022-12-07T06:33:16;1.60;99.90
55648;DHT22;45266;48.756;9.246;2022-12-07T06:34:20;1.60;99.90
55648;DHT22;45266;48.756;9.246;2022-12-07T06:35:24;1.50;99.90
55648;DHT22;45266;48.756;9.246;2022-12-07T06:36:26;1.50;99.90
55648;DHT22;45266;48.756;9.246;2022-12-07T06:37:28;1.50;99.90
55648;DHT22;45266;48.756;9.246;2022-12-07T06:38:30;1.50;99.90
55648;DHT22;45266;48.756;9.246;2022-12-07T06:39:32;1.50;99.90
55648;DHT22;45266;48.756;9.246;2022-12-07T06:40:34;1.50;99.90
55648;DHT22;45266;48.756;9.246;2022-12-07T06:41:37;1.50;99.90
55648;DHT22;45266;48.756;9.246;2022-12-07T06:42:39;1.50;99.90
55648;DHT22;45266;48.756;9.246;2022-12-07T06:43:41;1.50;99.90
55648;DHT22;45266;48.756;9.246;2022-12-07T06:44:43;1.50;99.90
55648;DHT22;45266;48.756;9.246;2022-12-07T06:45:45;1.50;99.90
55648;DHT22;45266;48.756;9.246;2022-12-07T06:46:47;1.50;99.90
55648;DHT22;45266;48.756;9.246;2022-12-07T06:47:49;1.60;99.90
55648;DHT22;45266;48.756;9.246;2022-12-07T06:48:51;1.60;99.90
55648;DHT22;45266;48.756;9.246;2022-12-07T06:49:53;1.60;99.90
55648;DHT22;45266;48.756;9.246;2022-12-07T06:50:55;1.60;99.90
55648;DHT22;45266;48.756;9.246;2022-12-07T06:51:57;1.60;99.90
55648;DHT22;45266;48.756;9.246;2022-12-07T06:52:58;1.60;99.90
55648;DHT22;45266;48.756;9.246;2022-12-07T06:54:00;1.60;99.90
55648;DHT22;45266;48.756;9.246;2022-12-07T06:55:02;1.60;99.90
55648;DHT22;45266;48.756;9.246;2022-12-07T06:56:04;1.60;99.90
55648;DHT22;45266;48.756;9.246;2022-12-07T06:57:06;1.70;99.90
55648;DHT22;45266;48.756;9.246;2022-12-07T06:58:08;1.70;99.90
55648;DHT22;45266;48.756;9.246;2022-12-07T06:59:10;1.70;99.90
55648;DHT22;45266;48.756;9.246;2022-12-07T07:00:12;1.70;99.90
55648;DHT22;45266;48.756;9.246;2022-12-07T07:01:22;1.70;99.90
55648;DHT22;45266;48.756;9.246;2022-12-07T07:02:23;1.70;99.90
55648;DHT22;45266;48.756;9.246;2022-12-07T07:03:25;1.70;99.90
55648;DHT22;45266;48.756;9.246;2022-12-07T07:04:27;1.70;99.90
55648;DHT22;45266;48.756;9.246;2022-12-07T07:05:29;1.70;99.90
55648;DHT22;45266;48.756;9.246;2022-12-07T07:06:31;1.60;99.90
55648;DHT22;45266;48.756;9.246;2022-12-07T07:07:32;1.60;99.90
55648;DHT22;45266;48.756;9.246;2022-12-07T07:08:54;1.60;99.90
55648;DHT22;45266;48.756;9.246;2022-12-07T07:09:56;1.60;99.90
55648;DHT22;45266;48.756;9.246;2022-12-07T07:10:58;1.60;99.90
55648;DHT22;45266;48.756;9.246;2022-12-07T07:11:59;1.60;99.90
55648;DHT22;45266;48.756;9.246;2022-12-07T07:13:01;1.60;99.90
55648;DHT22;45266;48.756;9.246;2022-12-07T07:14:03;1.70;99.90
55648;DHT22;45266;48.756;9.246;2022-12-07T07:15:06;1.70;99.90
55648;DHT22;45266;48.756;9.246;2022-12-07T07:16:08;1.70;99.90
55648;DHT22;45266;48.756;9.246;2022-12-07T07:17:10;1.60;99.90
55648;DHT22;45266;48.756;9.246;2022-12-07T07:18:12;1.60;99.90